sensor_id;sensor_type;location;lat;lon;timestamp;temperature;humidity
12604;DHT22;6367;52.508;13.284;2023-09-07T00:01:08;24.20;94.20
12604;DHT22;6367;52.508;13.284;2023-09-07T00:03:34;24.20;94.20
12604;DHT22;6367;52.508;13.284;2023-09-07T00:05:59;24.20;94.30
12604;DHT22;6367;52.508;13.284;2023-09-07T00:08:25;24.20;94.30
12604;DHT22;6367;52.508;13.284;2023-09-07T00:10:51;24.20;94.40
12604;DHT22;6367;52.508;13.284;2023-09-07T00:13:17;24.30;94.50
12604;DHT22;6367;52.508;13.284;2023-09-07T00:15:43;24.20;94.50
12604;DHT22;6367;52.508;13.284;2023-09-07T00:18:09;24.20;94.60
12604;DHT22;6367;52.508;13.284;2023-09-07T00:20:35;24.10;94.70
12604;DHT22;6367;52.508;13.284;2023-09-07T00:23:01;24.10;94.80
12604;DHT22;6367;52.508;13.284;2023-09-07T00:25:27;24.00;94.90
12604;DHT22;6367;52.508;13.284;2023-09-07T00:27:53;24.00;94.80
12604;DHT22;6367;52.508;13.284;2023-09-07T00:30:19;24.00;94.90
12604;DHT22;6367;52.508;13.284;2023-09-07T00:32:44;23.90;95.00
12604;DHT22;6367;52.508;13.284;2023-09-07T00:35:10;23.90;95.10
12604;DHT22;6367;52.508;13.284;2023-09-07T00:37:37;23.90;95.20
12604;DHT22;6367;52.508;13.284;2023-09-07T00:40:03;24.00;95.20
12604;DHT22;6367;52.508;13.284;2023-09-07T00:42:29;23.90;95.10
12604;DHT22;6367;52.508;13.284;2023-09-07T00:44:55;23.80;95.20
12604;DHT22;6367;52.508;13.284;2023-09-07T00:47:21;23.90;95.20
12604;DHT22;6367;52.508;13.284;2023-09-07T00:49:48;23.90;95.30
12604;DHT22;6367;52.508;13.284;2023-09-07T00:52:14;23.80;95.40
12604;DHT22;6367;52.508;13.284;2023-09-07T00:54:40;23.90;95.50
12604;DHT22;6367;52.508;13.284;2023-09-07T00:57:07;23.90;95.40
12604;DHT22;6367;52.508;13.284;2023-09-07T00:59:33;23.90;95.40
12604;DHT22;6367;52.508;13.284;2023-09-07T01:01:59;23.90;95.40
12604;DHT22;6367;52.508;13.284;2023-09-07T01:04:25;23.90;95.40
12604;DHT22;6367;52.508;13.284;2023-09-07T01:06:56;23.90;95.50
12604;DHT22;6367;52.508;13.284;2023-09-07T01:09:24;23.90;95.60
12604;DHT22;6367;52.508;13.284;2023-09-07T01:11:52;23.90;95.60
12604;DHT22;6367;52.508;13.284;2023-09-07T01:14:18;23.90;95.60
12604;DHT22;6367;52.508;13.284;2023-09-07T01:16:44;23.70;96.20
12604;DHT22;6367;52.508;13.284;2023-09-07T01:19:11;23.70;96.00
12604;DHT22;6367;52.508;13.284;2023-09-07T01:21:38;23.80;95.90
12604;DHT22;6367;52.508;13.284;2023-09-07T01:24:08;23.70;96.00
12604;DHT22;6367;52.508;13.284;2023-09-07T01:26:35;23.70;96.00
12604;DHT22;6367;52.508;13.284;2023-09-07T01:29:04;23.70;96.00
12604;DHT22;6367;52.508;13.284;2023-09-07T01:31:30;23.70;96.10
12604;DHT22;6367;52.508;13.284;2023-09-07T01:33:56;23.70;96.30
12604;DHT22;6367;52.508;13.284;2023-09-07T01:36:21;23.60;96.50
12604;DHT22;6367;52.508;13.284;2023-09-07T01:38:47;23.60;96.60
12604;DHT22;6367;52.508;13.284;2023-09-07T01:41:13;23.50;96.70
12604;DHT22;6367;52.508;13.284;2023-09-07T01:43:38;23.40;96.70
12604;DHT22;6367;52.508;13.284;2023-09-07T01:46:04;23.40;96.80
12604;DHT22;6367;52.508;13.284;2023-09-07T01:48:30;23.40;97.00
12604;DHT22;6367;52.508;13.284;2023-09-07T01:50:55;22.70;96.60
12604;DHT22;6367;52.508;13.284;2023-09-07T01:53:21;23.50;97.00
12604;DHT22;6367;52.508;13.284;2023-09-07T01:55:46;23.50;97.40
12604;DHT22;6367;52.508;13.284;2023-09-07T01:58:13;23.40;97.20
12604;DHT22;6367;52.508;13.284;2023-09-07T02:00:39;23.30;97.40
12604;DHT22;6367;52.508;13.284;2023-09-07T02:03:05;23.10;97.50
12604;DHT22;6367;52.508;13.284;2023-09-07T02:05:31;23.10;97.60
12604;DHT22;6367;52.508;13.284;2023-09-07T02:07:58;23.00;97.80
12604;DHT22;6367;52.508;13.284;2023-09-07T02:10:24;22.90;97.90
12604;DHT22;6367;52.508;13.284;2023-09-07T02:12:49;23.00;97.80
12604;DHT22;6367;52.508;13.284;2023-09-07T02:15:15;23.00;98.20
12604;DHT22;6367;52.508;13.284;2023-09-07T02:17:40;23.00;98.00
12604;DHT22;6367;52.508;13.284;2023-09-07T02:20:11;22.90;98.10
12604;DHT22;6367;52.508;13.284;2023-09-07T02:22:37;22.90;98.20
12604;DHT22;6367;52.508;13.284;2023-09-07T02:25:04;22.90;98.30
12604;DHT22;6367;52.508;13.284;2023-09-07T02:27:35;22.90;98.30
12604;DHT22;6367;52.508;13.284;2023-09-07T02:30:01;22.80;98.50
12604;DHT22;6367;52.508;13.284;2023-09-07T02:32:27;22.80;98.60
12604;DHT22;6367;52.508;13.284;2023-09-07T02:34:53;22.70;98.50
12604;DHT22;6367;52.508;13.284;2023-09-07T02:37:18;22.70;98.70
12604;DHT22;6367;52.508;13.284;2023-09-07T02:39:44;22.70;98.70
12604;DHT22;6367;52.508;13.284;2023-09-07T02:42:10;22.70;98.80
12604;DHT22;6367;52.508;13.284;2023-09-07T02:44:36;22.70;98.80
12604;DHT22;6367;52.508;13.284;2023-09-07T02:47:01;22.70;98.80
12604;DHT22;6367;52.508;13.284;2023-09-07T02:49:27;22.70;98.90
12604;DHT22;6367;52.508;13.284;2023-09-07T02:51:53;22.60;99.00
12604;DHT22;6367;52.508;13.284;2023-09-07T02:54:18;22.60;99.00
12604;DHT22;6367;52.508;13.284;2023-09-07T02:56:45;22.60;99.10
12604;DHT22;6367;52.508;13.284;2023-09-07T02:59:10;22.60;99.10
12604;DHT22;6367;52.508;13.284;2023-09-07T03:01:38;22.60;99.10
12604;DHT22;6367;52.508;13.284;2023-09-07T03:04:05;22.60;99.00
12604;DHT22;6367;52.508;13.284;2023-09-07T03:06:31;22.60;99.00
12604;DHT22;6367;52.508;13.284;2023-09-07T03:08:57;22.60;99.00
12604;DHT22;6367;52.508;13.284;2023-09-07T03:11:23;22.50;98.90
12604;DHT22;6367;52.508;13.284;2023-09-07T03:13:48;22.60;98.90
12604;DHT22;6367;52.508;13.284;2023-09-07T03:16:14;22.60;98.90
12604;DHT22;6367;52.508;13.284;2023-09-07T03:18:40;22.60;98.70
12604;DHT22;6367;52.508;13.284;2023-09-07T03:21:06;22.60;98.70
12604;DHT22;6367;52.508;13.284;2023-09-07T03:23:33;22.60;98.70
12604;DHT22;6367;52.508;13.284;2023-09-07T03:25:59;22.60;98.70
12604;DHT22;6367;52.508;13.284;2023-09-07T03:28:25;22.60;99.00
12604;DHT22;6367;52.508;13.284;2023-09-07T03:30:53;22.70;98.60
12604;DHT22;6367;52.508;13.284;2023-09-07T03:33:19;22.60;98.60
12604;DHT22;6367;52.508;13.284;2023-09-07T03:35:45;22.70;98.60
12604;DHT22;6367;52.508;13.284;2023-09-07T03:38:10;22.60;98.60
12604;DHT22;6367;52.508;13.284;2023-09-07T03:40:36;22.50;98.60
12604;DHT22;6367;52.508;13.284;2023-09-07T03:43:02;22.60;98.60
12604;DHT22;6367;52.508;13.284;2023-09-07T03:45:27;22.60;98.50
12604;DHT22;6367;52.508;13.284;2023-09-07T03:47:53;22.50;98.60
12604;DHT22;6367;52.508;13.284;2023-09-07T03:50:19;22.50;98.60
12604;DHT22;6367;52.508;13.284;2023-09-07T03:52:44;22.50;98.70
12604;DHT22;6367;52.508;13.284;2023-09-07T03:55:10;22.60;98.60
12604;DHT22;6367;52.508;13.284;2023-09-07T03:57:35;22.50;98.50
12604;DHT22;6367;52.508;13.284;2023-09-07T04:00:02;22.40;98.60
12604;DHT22;6367;52.508;13.284;2023-09-07T04:02:32;22.50;98.60
12604;DHT22;6367;52.508;13.284;2023-09-07T04:04:58;22.50;98.60
12604;DHT22;6367;52.508;13.284;2023-09-07T04:07:24;22.50;98.50
12604;DHT22;6367;52.508;13.284;2023-09-07T04:09:50;22.60;98.50
12604;DHT22;6367;52.508;13.284;2023-09-07T04:12:16;22.60;98.40
12604;DHT22;6367;52.508;13.284;2023-09-07T04:14:41;22.60;98.40
12604;DHT22;6367;52.508;13.284;2023-09-07T04:17:08;22.50;98.30
12604;DHT22;6367;52.508;13.284;2023-09-07T04:19:33;22.40;98.20
12604;DHT22;6367;52.508;13.284;2023-09-07T04:22:00;22.40;98.20
12604;DHT22;6367;52.508;13.284;2023-09-07T04:24:25;22.30;98.30
12604;DHT22;6367;52.508;13.284;2023-09-07T04:26:53;22.40;98.10
12604;DHT22;6367;52.508;13.284;2023-09-07T04:29:19;22.40;98.20
12604;DHT22;6367;52.508;13.284;2023-09-07T04:31:44;22.40;98.20
12604;DHT22;6367;52.508;13.284;2023-09-07T04:34:10;22.40;98.10
12604;DHT22;6367;52.508;13.284;2023-09-07T04:36:36;22.40;97.90
12604;DHT22;6367;52.508;13.284;2023-09-07T04:39:01;22.40;97.80
12604;DHT22;6367;52.508;13.284;2023-09-07T04:41:29;22.40;97.80
12604;DHT22;6367;52.508;13.284;2023-09-07T04:43:54;22.30;97.90
12604;DHT22;6367;52.508;13.284;2023-09-07T04:46:21;22.30;98.00
12604;DHT22;6367;52.508;13.284;2023-09-07T04:48:48;22.30;97.90
12604;DHT22;6367;52.508;13.284;2023-09-07T04:51:14;22.30;98.00
12604;DHT22;6367;52.508;13.284;2023-09-07T04:53:39;22.30;98.10
12604;DHT22;6367;52.508;13.284;2023-09-07T04:56:06;22.40;98.00
12604;DHT22;6367;52.508;13.284;2023-09-07T04:58:33;22.40;98.10
12604;DHT22;6367;52.508;13.284;2023-09-07T05:01:07;22.40;98.00
12604;DHT22;6367;52.508;13.284;2023-09-07T05:03:36;22.40;98.10
12604;DHT22;6367;52.508;13.284;2023-09-07T05:06:04;22.40;98.20
12604;DHT22;6367;52.508;13.284;2023-09-07T05:08:30;22.30;98.20
12604;DHT22;6367;52.508;13.284;2023-09-07T05:10:58;22.40;98.10
12604;DHT22;6367;52.508;13.284;2023-09-07T05:13:24;22.40;98.00
12604;DHT22;6367;52.508;13.284;2023-09-07T05:15:51;22.40;97.90
12604;DHT22;6367;52.508;13.284;2023-09-07T05:18:17;22.40;98.10
12604;DHT22;6367;52.508;13.284;2023-09-07T05:20:43;22.40;98.00
12604;DHT22;6367;52.508;13.284;2023-09-07T05:23:18;22.30;98.10
12604;DHT22;6367;52.508;13.284;2023-09-07T05:25:52;22.40;97.90
12604;DHT22;6367;52.508;13.284;2023-09-07T05:28:19;22.30;98.00
12604;DHT22;6367;52.508;13.284;2023-09-07T05:30:44;22.40;97.90
12604;DHT22;6367;52.508;13.284;2023-09-07T05:33:11;22.40;97.80
12604;DHT22;6367;52.508;13.284;2023-09-07T05:35:37;22.40;97.70
12604;DHT22;6367;52.508;13.284;2023-09-07T05:38:06;22.50;97.60
12604;DHT22;6367;52.508;13.284;2023-09-07T05:40:36;22.50;97.60
12604;DHT22;6367;52.508;13.284;2023-09-07T05:43:02;22.50;97.50
12604;DHT22;6367;52.508;13.284;2023-09-07T05:45:29;22.50;97.60
12604;DHT22;6367;52.508;13.284;2023-09-07T05:47:55;22.60;97.60
12604;DHT22;6367;52.508;13.284;2023-09-07T05:50:21;22.50;97.80
12604;DHT22;6367;52.508;13.284;2023-09-07T05:52:47;22.50;97.80
12604;DHT22;6367;52.508;13.284;2023-09-07T05:55:13;22.50;97.80
12604;DHT22;6367;52.508;13.284;2023-09-07T05:57:39;22.60;97.70
12604;DHT22;6367;52.508;13.284;2023-09-07T06:00:05;22.60;97.70
12604;DHT22;6367;52.508;13.284;2023-09-07T06:02:31;22.70;97.50
12604;DHT22;6367;52.508;13.284;2023-09-07T06:04:56;22.70;97.60
12604;DHT22;6367;52.508;13.284;2023-09-07T06:07:22;22.80;97.20
12604;DHT22;6367;52.508;13.284;2023-09-07T06:09:47;22.80;97.20
12604;DHT22;6367;52.508;13.284;2023-09-07T06:12:13;22.80;97.20
12604;DHT22;6367;52.508;13.284;2023-09-07T06:14:39;22.90;97.40
12604;DHT22;6367;52.508;13.284;2023-09-07T06:17:04;22.90;97.10
12604;DHT22;6367;52.508;13.284;2023-09-07T06:19:31;23.00;97.20
12604;DHT22;6367;52.508;13.284;2023-09-07T06:21:57;23.00;96.80
12604;DHT22;6367;52.508;13.284;2023-09-07T06:24:22;23.00;97.00
12604;DHT22;6367;52.508;13.284;2023-09-07T06:26:48;23.10;96.90
12604;DHT22;6367;52.508;13.284;2023-09-07T06:29:15;23.20;97.10
12604;DHT22;6367;52.508;13.284;2023-09-07T06:31:40;23.40;96.80
12604;DHT22;6367;52.508;13.284;2023-09-07T06:34:06;23.60;96.40
12604;DHT22;6367;52.508;13.284;2023-09-07T06:36:32;23.90;95.60
12604;DHT22;6367;52.508;13.284;2023-09-07T06:38:57;24.00;95.00
12604;DHT22;6367;52.508;13.284;2023-09-07T06:41:24;24.10;95.00
12604;DHT22;6367;52.508;13.284;2023-09-07T06:43:49;24.10;94.50
12604;DHT22;6367;52.508;13.284;2023-09-07T06:46:15;24.10;94.50
12604;DHT22;6367;52.508;13.284;2023-09-07T06:48:41;24.20;94.30
12604;DHT22;6367;52.508;13.284;2023-09-07T06:51:06;24.20;94.00
12604;DHT22;6367;52.508;13.284;2023-09-07T06:53:33;24.40;94.00
12604;DHT22;6367;52.508;13.284;2023-09-07T06:56:00;24.50;93.70
12604;DHT22;6367;52.508;13.284;2023-09-07T06:58:26;24.60;93.90
12604;DHT22;6367;52.508;13.284;2023-09-07T07:00:52;24.70;93.40
12604;DHT22;6367;52.508;13.284;2023-09-07T07:03:18;24.80;92.90
12604;DHT22;6367;52.508;13.284;2023-09-07T07:05:43;24.90;92.60
12604;DHT22;6367;52.508;13.284;2023-09-07T07:08:09;25.00;92.70
12604;DHT22;6367;52.508;13.284;2023-09-07T07:10:35;25.00;92.30
12604;DHT22;6367;52.508;13.284;2023-09-07T07:13:01;25.10;92.40
12604;DHT22;6367;52.508;13.284;2023-09-07T07:15:26;25.10;92.40
12604;DHT22;6367;52.508;13.284;2023-09-07T07:17:52;25.20;92.10
12604;DHT22;6367;52.508;13.284;2023-09-07T07:20:17;25.20;91.80
12604;DHT22;6367;52.508;13.284;2023-09-07T07:22:43;25.20;91.90
12604;DHT22;6367;52.508;13.284;2023-09-07T07:25:10;25.20;92.00
12604;DHT22;6367;52.508;13.284;2023-09-07T07:27:36;25.20;92.10
12604;DHT22;6367;52.508;13.284;2023-09-07T07:30:02;25.30;91.80
12604;DHT22;6367;52.508;13.284;2023-09-07T07:32:28;25.50;91.60
12604;DHT22;6367;52.508;13.284;2023-09-07T07:34:54;25.50;91.60
12604;DHT22;6367;52.508;13.284;2023-09-07T07:37:20;25.60;91.60
12604;DHT22;6367;52.508;13.284;2023-09-07T07:39:45;25.60;91.90
12604;DHT22;6367;52.508;13.284;2023-09-07T07:42:11;25.70;91.80
12604;DHT22;6367;52.508;13.284;2023-09-07T07:44:37;25.80;91.50
12604;DHT22;6367;52.508;13.284;2023-09-07T07:47:03;25.80;91.30
12604;DHT22;6367;52.508;13.284;2023-09-07T07:49:29;25.80;91.30
12604;DHT22;6367;52.508;13.284;2023-09-07T07:51:54;25.90;91.10
12604;DHT22;6367;52.508;13.284;2023-09-07T07:54:22;25.90;91.00
12604;DHT22;6367;52.508;13.284;2023-09-07T07:56:50;25.90;91.10
12604;DHT22;6367;52.508;13.284;2023-09-07T07:59:16;26.10;90.80
12604;DHT22;6367;52.508;13.284;2023-09-07T08:01:41;26.00;90.70
12604;DHT22;6367;52.508;13.284;2023-09-07T08:04:08;26.00;90.90
12604;DHT22;6367;52.508;13.284;2023-09-07T08:06:34;26.10;90.60
12604;DHT22;6367;52.508;13.284;2023-09-07T08:09:00;26.20;90.60
12604;DHT22;6367;52.508;13.284;2023-09-07T08:11:26;26.20;90.70
12604;DHT22;6367;52.508;13.284;2023-09-07T08:13:52;26.30;90.90
12604;DHT22;6367;52.508;13.284;2023-09-07T08:16:18;26.40;91.10
12604;DHT22;6367;52.508;13.284;2023-09-07T08:18:44;26.50;90.90
12604;DHT22;6367;52.508;13.284;2023-09-07T08:21:09;26.50;90.40
12604;DHT22;6367;52.508;13.284;2023-09-07T08:23:35;26.60;90.40
12604;DHT22;6367;52.508;13.284;2023-09-07T08:26:01;26.70;90.60
12604;DHT22;6367;52.508;13.284;2023-09-07T08:28:28;26.80;90.20
12604;DHT22;6367;52.508;13.284;2023-09-07T08:30:54;26.80;89.50
12604;DHT22;6367;52.508;13.284;2023-09-07T08:33:23;26.90;89.30
12604;DHT22;6367;52.508;13.284;2023-09-07T08:35:53;27.00;88.90
12604;DHT22;6367;52.508;13.284;2023-09-07T08:38:19;27.10;89.00
12604;DHT22;6367;52.508;13.284;2023-09-07T08:40:50;27.10;89.30
12604;DHT22;6367;52.508;13.284;2023-09-07T08:43:16;27.20;89.70
12604;DHT22;6367;52.508;13.284;2023-09-07T08:45:51;27.40;88.00
12604;DHT22;6367;52.508;13.284;2023-09-07T08:48:24;27.50;88.10
12604;DHT22;6367;52.508;13.284;2023-09-07T08:50:51;27.50;86.90
12604;DHT22;6367;52.508;13.284;2023-09-07T08:53:18;27.60;86.70
12604;DHT22;6367;52.508;13.284;2023-09-07T08:55:45;27.70;86.40
12604;DHT22;6367;52.508;13.284;2023-09-07T08:58:11;27.60;85.80
12604;DHT22;6367;52.508;13.284;2023-09-07T09:00:37;27.70;85.10
12604;DHT22;6367;52.508;13.284;2023-09-07T09:03:03;27.70;84.90
12604;DHT22;6367;52.508;13.284;2023-09-07T09:05:30;27.90;85.00
12604;DHT22;6367;52.508;13.284;2023-09-07T09:08:03;28.00;85.70
12604;DHT22;6367;52.508;13.284;2023-09-07T09:10:32;28.00;84.00
12604;DHT22;6367;52.508;13.284;2023-09-07T09:12:58;28.00;82.80
12604;DHT22;6367;52.508;13.284;2023-09-07T09:15:25;28.10;82.90
12604;DHT22;6367;52.508;13.284;2023-09-07T09:17:53;28.10;82.30
12604;DHT22;6367;52.508;13.284;2023-09-07T09:20:25;28.20;82.00
12604;DHT22;6367;52.508;13.284;2023-09-07T09:22:55;28.20;81.80
12604;DHT22;6367;52.508;13.284;2023-09-07T09:25:21;28.20;80.70
12604;DHT22;6367;52.508;13.284;2023-09-07T09:27:47;28.30;80.30
12604;DHT22;6367;52.508;13.284;2023-09-07T09:30:14;28.40;80.80
12604;DHT22;6367;52.508;13.284;2023-09-07T09:32:42;28.00;80.60
12604;DHT22;6367;52.508;13.284;2023-09-07T09:35:08;28.50;81.10
12604;DHT22;6367;52.508;13.284;2023-09-07T09:37:43;28.50;80.70
12604;DHT22;6367;52.508;13.284;2023-09-07T09:40:09;28.60;80.60
12604;DHT22;6367;52.508;13.284;2023-09-07T09:42:35;28.70;80.60
12604;DHT22;6367;52.508;13.284;2023-09-07T09:45:03;28.70;80.80
12604;DHT22;6367;52.508;13.284;2023-09-07T09:47:31;28.80;80.00
12604;DHT22;6367;52.508;13.284;2023-09-07T09:49:57;28.80;80.10
12604;DHT22;6367;52.508;13.284;2023-09-07T09:52:24;28.90;80.20
12604;DHT22;6367;52.508;13.284;2023-09-07T09:54:52;28.90;79.20
12604;DHT22;6367;52.508;13.284;2023-09-07T09:57:17;28.80;79.00
12604;DHT22;6367;52.508;13.284;2023-09-07T09:59:43;28.80;79.50
12604;DHT22;6367;52.508;13.284;2023-09-07T10:02:10;28.80;80.10
12604;DHT22;6367;52.508;13.284;2023-09-07T10:04:36;28.80;79.90
12604;DHT22;6367;52.508;13.284;2023-09-07T10:07:02;28.90;79.90
12604;DHT22;6367;52.508;13.284;2023-09-07T10:09:34;28.90;79.60
12604;DHT22;6367;52.508;13.284;2023-09-07T10:12:01;29.00;80.00
12604;DHT22;6367;52.508;13.284;2023-09-07T10:14:38;29.00;79.50
12604;DHT22;6367;52.508;13.284;2023-09-07T10:17:05;29.00;79.70
12604;DHT22;6367;52.508;13.284;2023-09-07T10:19:30;29.10;79.20
12604;DHT22;6367;52.508;13.284;2023-09-07T10:21:56;29.20;79.10
12604;DHT22;6367;52.508;13.284;2023-09-07T10:24:29;29.30;79.20
12604;DHT22;6367;52.508;13.284;2023-09-07T10:29:26;29.50;77.20
12604;DHT22;6367;52.508;13.284;2023-09-07T10:31:53;29.50;77.80
12604;DHT22;6367;52.508;13.284;2023-09-07T10:34:19;29.50;76.60
12604;DHT22;6367;52.508;13.284;2023-09-07T10:36:46;29.40;76.20
12604;DHT22;6367;52.508;13.284;2023-09-07T10:39:12;29.40;76.70
12604;DHT22;6367;52.508;13.284;2023-09-07T10:41:45;29.30;76.90
12604;DHT22;6367;52.508;13.284;2023-09-07T10:44:11;29.30;77.10
12604;DHT22;6367;52.508;13.284;2023-09-07T10:46:38;29.30;77.30
12604;DHT22;6367;52.508;13.284;2023-09-07T10:49:07;29.40;76.30
12604;DHT22;6367;52.508;13.284;2023-09-07T10:51:40;29.50;76.70
12604;DHT22;6367;52.508;13.284;2023-09-07T10:54:17;29.60;76.00
12604;DHT22;6367;52.508;13.284;2023-09-07T10:56:44;29.80;76.50
12604;DHT22;6367;52.508;13.284;2023-09-07T10:59:11;29.80;75.70
12604;DHT22;6367;52.508;13.284;2023-09-07T11:01:37;29.80;75.80
12604;DHT22;6367;52.508;13.284;2023-09-07T11:04:02;29.70;76.30
12604;DHT22;6367;52.508;13.284;2023-09-07T11:06:30;29.80;76.20
12604;DHT22;6367;52.508;13.284;2023-09-07T11:09:02;29.90;75.10
12604;DHT22;6367;52.508;13.284;2023-09-07T11:11:31;30.00;74.90
12604;DHT22;6367;52.508;13.284;2023-09-07T11:13:59;30.00;74.90
12604;DHT22;6367;52.508;13.284;2023-09-07T11:16:25;30.10;74.70
12604;DHT22;6367;52.508;13.284;2023-09-07T11:18:52;30.20;74.20
12604;DHT22;6367;52.508;13.284;2023-09-07T11:21:20;30.20;74.20
12604;DHT22;6367;52.508;13.284;2023-09-07T11:23:46;30.20;74.50
12604;DHT22;6367;52.508;13.284;2023-09-07T11:26:11;30.20;73.50
12604;DHT22;6367;52.508;13.284;2023-09-07T11:28:38;30.30;74.10
12604;DHT22;6367;52.508;13.284;2023-09-07T11:31:03;30.30;73.10
12604;DHT22;6367;52.508;13.284;2023-09-07T11:33:32;30.40;73.40
12604;DHT22;6367;52.508;13.284;2023-09-07T11:35:59;30.40;73.10
12604;DHT22;6367;52.508;13.284;2023-09-07T11:38:31;30.50;72.10
12604;DHT22;6367;52.508;13.284;2023-09-07T11:41:00;30.50;71.10
12604;DHT22;6367;52.508;13.284;2023-09-07T11:43:25;30.40;71.10
12604;DHT22;6367;52.508;13.284;2023-09-07T11:45:51;30.30;71.80
12604;DHT22;6367;52.508;13.284;2023-09-07T11:48:17;30.30;71.80
12604;DHT22;6367;52.508;13.284;2023-09-07T11:50:43;30.30;71.40
12604;DHT22;6367;52.508;13.284;2023-09-07T11:53:09;30.30;70.00
12604;DHT22;6367;52.508;13.284;2023-09-07T11:55:35;30.40;69.50
12604;DHT22;6367;52.508;13.284;2023-09-07T11:58:01;30.40;69.70
12604;DHT22;6367;52.508;13.284;2023-09-07T12:00:27;30.50;68.30
12604;DHT22;6367;52.508;13.284;2023-09-07T12:02:53;30.50;67.20
12604;DHT22;6367;52.508;13.284;2023-09-07T12:05:19;30.70;66.00
12604;DHT22;6367;52.508;13.284;2023-09-07T12:07:45;30.70;67.40
12604;DHT22;6367;52.508;13.284;2023-09-07T12:10:11;30.80;68.50
12604;DHT22;6367;52.508;13.284;2023-09-07T12:12:38;30.90;66.80
12604;DHT22;6367;52.508;13.284;2023-09-07T12:15:04;31.00;67.50
12604;DHT22;6367;52.508;13.284;2023-09-07T12:17:30;31.00;67.80
12604;DHT22;6367;52.508;13.284;2023-09-07T12:19:56;31.10;67.80
12604;DHT22;6367;52.508;13.284;2023-09-07T12:22:22;31.20;67.10
12604;DHT22;6367;52.508;13.284;2023-09-07T12:24:48;31.10;67.00
12604;DHT22;6367;52.508;13.284;2023-09-07T12:27:14;31.20;66.80
12604;DHT22;6367;52.508;13.284;2023-09-07T12:29:39;31.20;67.30
12604;DHT22;6367;52.508;13.284;2023-09-07T12:32:05;31.20;65.60
12604;DHT22;6367;52.508;13.284;2023-09-07T12:34:31;31.10;66.20
12604;DHT22;6367;52.508;13.284;2023-09-07T12:36:56;31.10;66.00
12604;DHT22;6367;52.508;13.284;2023-09-07T12:39:22;31.20;65.40
12604;DHT22;6367;52.508;13.284;2023-09-07T12:41:48;31.20;65.60
12604;DHT22;6367;52.508;13.284;2023-09-07T12:44:13;31.20;65.40
12604;DHT22;6367;52.508;13.284;2023-09-07T12:46:39;31.20;65.00
12604;DHT22;6367;52.508;13.284;2023-09-07T12:49:04;31.10;65.20
12604;DHT22;6367;52.508;13.284;2023-09-07T12:51:31;31.00;65.60
12604;DHT22;6367;52.508;13.284;2023-09-07T12:53:57;31.00;66.20
12604;DHT22;6367;52.508;13.284;2023-09-07T12:56:22;30.90;66.50
12604;DHT22;6367;52.508;13.284;2023-09-07T12:58:49;30.80;67.00
12604;DHT22;6367;52.508;13.284;2023-09-07T13:01:17;30.90;67.50
12604;DHT22;6367;52.508;13.284;2023-09-07T13:03:44;30.90;67.60
12604;DHT22;6367;52.508;13.284;2023-09-07T13:06:09;30.90;67.80
12604;DHT22;6367;52.508;13.284;2023-09-07T13:08:35;30.70;68.70
12604;DHT22;6367;52.508;13.284;2023-09-07T13:11:01;30.30;68.20
12604;DHT22;6367;52.508;13.284;2023-09-07T13:13:27;30.70;67.20
12604;DHT22;6367;52.508;13.284;2023-09-07T13:15:58;30.60;67.30
12604;DHT22;6367;52.508;13.284;2023-09-07T13:18:24;30.50;67.40
12604;DHT22;6367;52.508;13.284;2023-09-07T13:20:50;30.60;67.40
12604;DHT22;6367;52.508;13.284;2023-09-07T13:23:17;30.60;67.90
12604;DHT22;6367;52.508;13.284;2023-09-07T13:25:43;30.60;67.70
12604;DHT22;6367;52.508;13.284;2023-09-07T13:28:09;30.70;66.60
12604;DHT22;6367;52.508;13.284;2023-09-07T13:30:34;30.80;65.50
12604;DHT22;6367;52.508;13.284;2023-09-07T13:33:00;30.80;65.60
12604;DHT22;6367;52.508;13.284;2023-09-07T13:35:26;30.70;66.20
12604;DHT22;6367;52.508;13.284;2023-09-07T13:37:52;30.80;65.40
12604;DHT22;6367;52.508;13.284;2023-09-07T13:40:18;30.70;65.90
12604;DHT22;6367;52.508;13.284;2023-09-07T13:42:45;30.70;67.10
12604;DHT22;6367;52.508;13.284;2023-09-07T13:45:11;30.80;66.90
12604;DHT22;6367;52.508;13.284;2023-09-07T13:47:37;30.80;67.10
12604;DHT22;6367;52.508;13.284;2023-09-07T13:50:04;30.80;66.20
12604;DHT22;6367;52.508;13.284;2023-09-07T13:52:30;30.70;64.90
12604;DHT22;6367;52.508;13.284;2023-09-07T13:54:55;30.70;64.00
12604;DHT22;6367;52.508;13.284;2023-09-07T13:57:21;30.70;64.60
12604;DHT22;6367;52.508;13.284;2023-09-07T13:59:46;30.80;65.20
12604;DHT22;6367;52.508;13.284;2023-09-07T14:02:12;30.70;65.60
12604;DHT22;6367;52.508;13.284;2023-09-07T14:04:38;30.70;65.90
12604;DHT22;6367;52.508;13.284;2023-09-07T14:07:03;30.70;65.70
12604;DHT22;6367;52.508;13.284;2023-09-07T14:09:29;30.80;64.70
12604;DHT22;6367;52.508;13.284;2023-09-07T14:11:55;30.80;65.20
12604;DHT22;6367;52.508;13.284;2023-09-07T14:14:21;30.80;65.00
12604;DHT22;6367;52.508;13.284;2023-09-07T14:16:47;30.80;64.60
12604;DHT22;6367;52.508;13.284;2023-09-07T14:19:14;30.70;66.20
12604;DHT22;6367;52.508;13.284;2023-09-07T14:21:40;30.80;65.40
12604;DHT22;6367;52.508;13.284;2023-09-07T14:24:06;30.80;64.40
12604;DHT22;6367;52.508;13.284;2023-09-07T14:26:31;30.70;64.80
12604;DHT22;6367;52.508;13.284;2023-09-07T14:28:57;30.60;64.70
12604;DHT22;6367;52.508;13.284;2023-09-07T14:31:23;30.50;64.90
12604;DHT22;6367;52.508;13.284;2023-09-07T14:33:48;30.50;64.90
12604;DHT22;6367;52.508;13.284;2023-09-07T14:36:15;30.50;65.40
12604;DHT22;6367;52.508;13.284;2023-09-07T14:38:41;30.60;65.20
12604;DHT22;6367;52.508;13.284;2023-09-07T14:41:10;30.60;65.00
12604;DHT22;6367;52.508;13.284;2023-09-07T14:43:43;30.50;64.30
12604;DHT22;6367;52.508;13.284;2023-09-07T14:46:08;30.50;65.20
12604;DHT22;6367;52.508;13.284;2023-09-07T14:48:34;30.40;65.50
12604;DHT22;6367;52.508;13.284;2023-09-07T14:50:59;30.60;65.20
12604;DHT22;6367;52.508;13.284;2023-09-07T14:53:25;30.50;65.90
12604;DHT22;6367;52.508;13.284;2023-09-07T14:55:51;30.50;66.20
12604;DHT22;6367;52.508;13.284;2023-09-07T14:58:16;30.40;66.40
12604;DHT22;6367;52.508;13.284;2023-09-07T15:00:42;30.30;66.70
12604;DHT22;6367;52.508;13.284;2023-09-07T15:03:08;30.40;66.90
12604;DHT22;6367;52.508;13.284;2023-09-07T15:05:33;30.40;67.10
12604;DHT22;6367;52.508;13.284;2023-09-07T15:07:59;30.40;67.50
12604;DHT22;6367;52.508;13.284;2023-09-07T15:10:28;30.30;67.30
12604;DHT22;6367;52.508;13.284;2023-09-07T15:12:54;30.30;67.20
12604;DHT22;6367;52.508;13.284;2023-09-07T15:15:20;30.40;67.10
12604;DHT22;6367;52.508;13.284;2023-09-07T15:17:47;30.30;67.40
12604;DHT22;6367;52.508;13.284;2023-09-07T15:20:13;30.30;67.80
12604;DHT22;6367;52.508;13.284;2023-09-07T15:22:39;30.40;67.10
12604;DHT22;6367;52.508;13.284;2023-09-07T15:25:05;30.40;67.40
12604;DHT22;6367;52.508;13.284;2023-09-07T15:27:31;30.30;67.70